createdAt,value
2022-10-02T00:01:39.966Z,78.10
2022-10-02T00:04:16.298Z,78.73
2022-10-02T00:06:49.776Z,77.98
2022-10-02T00:09:27.421Z,78.01
2022-10-02T00:12:00.775Z,78.30
2022-10-02T00:14:38.679Z,78.40
2022-10-02T00:17:14.100Z,77.78
2022-10-02T00:19:47.325Z,78.21
2022-10-02T00:22:37.252Z,78.12
2022-10-02T00:25:16.441Z,77.91
2022-10-02T00:28:04.638Z,77.61
2022-10-02T00:30:47.711Z,78.34
2022-10-02T00:33:26.835Z,78.61
2022-10-02T00:36:10.185Z,78.82
2022-10-02T00:38:50.614Z,78.29
2022-10-02T00:41:40.693Z,78.74
2022-10-02T00:44:30.506Z,78.38
2022-10-02T00:47:10.841Z,78.16
2022-10-02T00:50:05.435Z,77.86
2022-10-02T00:52:52.586Z,78.02
2022-10-02T00:55:50.975Z,78.09
2022-10-02T00:58:38.367Z,78.22
2022-10-02T01:01:13.469Z,78.22
2022-10-02T01:03:53.384Z,78.26
2022-10-02T01:06:29.641Z,78.48
2022-10-02T01:09:01.559Z,78.28
2022-10-02T01:11:33.624Z,78.54
2022-10-02T01:14:04.391Z,78.08
2022-10-02T01:16:35.787Z,78.79
2022-10-02T01:19:13.713Z,78.89
2022-10-02T01:21:56.085Z,79.13
2022-10-02T01:24:32.937Z,78.87
2022-10-02T01:27:05.989Z,78.92
2022-10-02T01:29:36.897Z,78.65
2022-10-02T01:32:07.356Z,78.87
2022-10-02T01:34:37.991Z,78.90
2022-10-02T01:37:08.549Z,78.90
2022-10-02T01:39:39.470Z,79.02
2022-10-02T01:42:12.443Z,79.14
2022-10-02T01:44:42.791Z,78.88
2022-10-02T01:47:18.312Z,78.62
2022-10-02T01:50:04.375Z,78.83
2022-10-02T01:52:46.653Z,79.17
2022-10-02T01:55:34.542Z,79.18
2022-10-02T01:58:22.131Z,78.50
2022-10-02T02:04:05.371Z,78.04
2022-10-02T02:06:45.137Z,78.02
2022-10-02T02:09:20.164Z,78.25
2022-10-02T02:11:57.836Z,78.71
2022-10-02T02:14:36.259Z,78.91
2022-10-02T02:17:13.262Z,78.35
2022-10-02T02:19:48.879Z,78.72
2022-10-02T02:22:25.140Z,78.67
2022-10-02T02:25:00.867Z,78.55
2022-10-02T02:27:37.034Z,78.75
2022-10-02T02:30:14.813Z,78.38
2022-10-02T02:32:50.393Z,77.97
2022-10-02T02:35:26.405Z,78.61
2022-10-02T02:38:03.838Z,78.21
2022-10-02T02:40:39.358Z,78.81
2022-10-02T02:43:12.948Z,79.13
2022-10-02T02:45:51.093Z,79.18
2022-10-02T02:48:25.722Z,78.97
2022-10-02T02:51:00.504Z,78.74
2022-10-02T02:53:36.481Z,78.34
2022-10-02T02:56:11.226Z,78.16
2022-10-02T02:58:47.544Z,77.16
2022-10-02T03:01:21.450Z,76.96
2022-10-02T03:03:51.846Z,76.34
2022-10-02T03:06:41.183Z,76.11
2022-10-02T03:09:15.348Z,76.47
2022-10-02T03:11:56.241Z,76.11
2022-10-02T03:14:51.340Z,75.80
2022-10-02T03:17:36.473Z,75.48
2022-10-02T03:20:17.045Z,76.11
2022-10-02T03:22:56.984Z,75.89
2022-10-02T03:25:32.712Z,75.67
2022-10-02T03:28:10.576Z,75.15
2022-10-02T03:30:43.225Z,74.93
2022-10-02T03:33:18.332Z,74.92
2022-10-02T03:35:50.804Z,74.85
2022-10-02T03:38:23.873Z,75.05
2022-10-02T03:40:54.087Z,74.43
2022-10-02T03:43:26.514Z,74.83
2022-10-02T03:45:56.779Z,75.32
2022-10-02T03:48:29.539Z,76.02
2022-10-02T03:51:02.515Z,76.07
2022-10-02T03:53:37.091Z,76.50
2022-10-02T03:56:10.645Z,76.55
2022-10-02T03:58:46.532Z,76.62
2022-10-02T04:01:23.826Z,76.66
2022-10-02T04:04:02.262Z,76.15
2022-10-02T04:06:43.899Z,77.09
2022-10-02T04:09:19.791Z,76.88
2022-10-02T04:11:57.585Z,76.16
2022-10-02T04:14:33.276Z,76.69
2022-10-02T04:17:07.566Z,76.27
2022-10-02T04:19:47.007Z,76.75
2022-10-02T04:22:25.657Z,76.64
2022-10-02T04:25:01.218Z,76.70
2022-10-02T04:27:38.039Z,76.93
2022-10-02T04:30:12.310Z,76.92
2022-10-02T04:32:42.436Z,76.83
2022-10-02T04:35:25.584Z,76.79
2022-10-02T04:38:10.417Z,77.15
2022-10-02T04:40:58.316Z,77.13
2022-10-02T04:43:47.265Z,76.79
2022-10-02T04:46:31.733Z,76.36
2022-10-02T04:49:20.681Z,76.85
2022-10-02T04:52:18.059Z,77.19
2022-10-02T04:55:11.005Z,77.09
2022-10-02T04:58:02.442Z,77.23
2022-10-02T05:00:39.210Z,77.08
2022-10-02T05:03:25.572Z,77.15
2022-10-02T05:06:08.963Z,77.21
2022-10-02T05:09:00.157Z,77.25
2022-10-02T05:11:46.217Z,77.64
2022-10-02T05:14:35.239Z,77.56
2022-10-02T05:17:18.827Z,77.91
2022-10-02T05:20:06.372Z,77.48
2022-10-02T05:23:09.271Z,77.83
2022-10-02T05:26:22.029Z,78.15
2022-10-02T05:29:09.936Z,78.56
2022-10-02T05:31:51.641Z,79.40
2022-10-02T05:34:41.468Z,79.37
2022-10-02T05:37:27.666Z,79.80
2022-10-02T05:40:04.667Z,79.36
2022-10-02T05:42:43.287Z,79.31
2022-10-02T05:45:25.159Z,78.60
2022-10-02T05:47:58.484Z,78.42
2022-10-02T05:50:33.801Z,77.70
2022-10-02T05:53:07.662Z,76.70
2022-10-02T05:55:43.017Z,75.81
2022-10-02T05:58:22.907Z,74.27
2022-10-02T06:00:56.933Z,73.02
2022-10-02T06:03:34.264Z,72.00
2022-10-02T06:06:13.606Z,69.86
2022-10-02T06:08:47.506Z,69.11
2022-10-02T06:11:21.471Z,68.05
2022-10-02T06:14:01.778Z,67.07
2022-10-02T06:16:40.171Z,65.81
2022-10-02T06:19:16.479Z,65.00
2022-10-02T06:21:52.382Z,64.64
2022-10-02T06:24:28.245Z,62.72
2022-10-02T06:27:04.437Z,62.37
2022-10-02T06:29:43.038Z,60.75
2022-10-02T06:32:20.985Z,59.72
2022-10-02T06:34:53.238Z,58.70
2022-10-02T06:37:53.117Z,58.30
2022-10-02T06:40:45.859Z,56.98
2022-10-02T06:43:31.495Z,56.68
2022-10-02T06:46:11.785Z,55.96
2022-10-02T06:48:53.159Z,56.25
2022-10-02T06:51:27.682Z,56.65
2022-10-02T06:54:19.558Z,56.69
2022-10-02T06:57:05.572Z,55.42
2022-10-02T06:59:53.023Z,53.94
2022-10-02T07:02:42.880Z,53.14
2022-10-02T07:05:30.833Z,52.27
2022-10-02T07:08:12.125Z,52.24
2022-10-02T07:10:48.356Z,51.56
2022-10-02T07:13:32.727Z,52.04
2022-10-02T07:16:30.861Z,52.37
2022-10-02T07:19:29.094Z,52.46
2022-10-02T07:22:25.815Z,52.61
2022-10-02T07:25:17.265Z,51.21
2022-10-02T07:27:58.897Z,49.98
2022-10-02T07:30:40.529Z,50.63
2022-10-02T07:33:21.329Z,51.57
2022-10-02T07:36:03.230Z,50.52
2022-10-02T07:38:48.879Z,50.04
2022-10-02T07:41:51.419Z,49.66
2022-10-02T07:44:44.377Z,48.65
2022-10-02T07:47:30.231Z,49.02
2022-10-02T07:50:09.766Z,49.28
2022-10-02T07:52:54.519Z,48.52
2022-10-02T07:55:25.820Z,48.85
2022-10-02T07:58:03.465Z,48.01
2022-10-02T08:00:38.417Z,47.84
2022-10-02T08:03:15.460Z,48.24
2022-10-02T08:05:48.801Z,47.15
2022-10-02T08:08:26.630Z,47.26
2022-10-02T08:11:02.152Z,48.03
2022-10-02T08:13:35.689Z,47.49
2022-10-02T08:16:07.783Z,47.98
2022-10-02T08:18:44.034Z,46.45
2022-10-02T08:21:18.229Z,46.34
2022-10-02T08:23:55.950Z,47.29
2022-10-02T08:26:35.920Z,46.96
2022-10-02T08:29:12.266Z,45.96
2022-10-02T08:31:42.620Z,46.81
2022-10-02T08:34:21.065Z,45.07
2022-10-02T08:37:24.450Z,45.23
2022-10-02T08:40:44.312Z,45.55
2022-10-02T08:43:47.935Z,45.63
2022-10-02T08:46:44.245Z,44.41
2022-10-02T08:49:43.850Z,43.41
2022-10-02T08:52:54.298Z,43.44
2022-10-02T08:55:47.481Z,44.11
2022-10-02T08:58:48.519Z,43.34
2022-10-02T09:01:39.180Z,43.14
2022-10-02T09:04:43.627Z,43.70
2022-10-02T09:07:58.148Z,44.06
2022-10-02T09:10:55.817Z,43.35
2022-10-02T09:14:14.586Z,42.30
2022-10-02T09:17:15.760Z,43.13
2022-10-02T09:19:56.612Z,42.09
2022-10-02T09:22:52.097Z,41.81
2022-10-02T09:25:33.091Z,40.76
2022-10-02T09:28:33.152Z,41.06
2022-10-02T09:31:33.507Z,41.80
2022-10-02T09:34:39.639Z,41.44
2022-10-02T09:37:35.751Z,42.59
2022-10-02T09:40:48.862Z,41.34
2022-10-02T09:43:55.419Z,41.57
2022-10-02T09:46:59.585Z,40.82
2022-10-02T09:49:57.580Z,40.66
2022-10-02T09:52:57.846Z,40.31
2022-10-02T09:55:58.523Z,40.60
2022-10-02T09:59:13.219Z,41.47
2022-10-02T10:02:26.174Z,41.94
2022-10-02T10:05:35.562Z,42.36
2022-10-02T10:08:35.375Z,40.76
2022-10-02T10:11:21.136Z,41.53
2022-10-02T10:14:23.466Z,40.06
2022-10-02T10:17:28.371Z,40.85
2022-10-02T10:20:36.981Z,41.31
2022-10-02T10:23:23.694Z,42.58
2022-10-02T10:26:15.112Z,41.56
2022-10-02T10:29:22.200Z,41.57
2022-10-02T10:32:15.705Z,42.12
2022-10-02T10:35:11.644Z,42.97
2022-10-02T10:38:11.364Z,44.18
2022-10-02T10:40:52.720Z,43.13
2022-10-02T10:44:07.299Z,43.48
2022-10-02T10:47:02.287Z,42.45
2022-10-02T10:50:02.435Z,42.69
2022-10-02T10:53:04.137Z,41.99
2022-10-02T10:55:59.215Z,41.43
2022-10-02T10:58:46.523Z,41.69
2022-10-02T11:01:21.681Z,41.56
2022-10-02T11:04:08.993Z,41.62
2022-10-02T11:07:03.763Z,42.08
2022-10-02T11:10:07.817Z,41.83
2022-10-02T11:13:03.301Z,41.36
2022-10-02T11:16:02.776Z,41.03
2022-10-02T11:18:54.229Z,41.04
2022-10-02T11:21:56.636Z,42.03
2022-10-02T11:24:51.100Z,40.99
2022-10-02T11:27:46.768Z,40.43
2022-10-02T11:30:25.222Z,40.85
2022-10-02T11:33:30.725Z,40.93
2022-10-02T11:36:24.911Z,40.94
2022-10-02T11:39:17.496Z,40.67
2022-10-02T11:42:14.326Z,41.03
2022-10-02T11:45:24.163Z,40.79
2022-10-02T11:48:13.254Z,40.77
2022-10-02T11:50:56.873Z,40.13
2022-10-02T11:53:36.841Z,39.72
2022-10-02T11:56:26.548Z,39.47
2022-10-02T11:59:18.526Z,39.19
2022-10-02T12:01:59.456Z,39.79
2022-10-02T12:04:40.951Z,39.34
2022-10-02T12:07:27.462Z,40.36
2022-10-02T12:10:20.155Z,40.32
2022-10-02T12:13:00.523Z,40.46
2022-10-02T12:15:41.208Z,40.92
2022-10-02T12:18:40.933Z,42.01
2022-10-02T12:21:42.083Z,41.93
2022-10-02T12:24:34.559Z,42.13
2022-10-02T12:27:15.885Z,41.57
2022-10-02T12:30:04.257Z,41.42
2022-10-02T12:32:58.925Z,41.63
2022-10-02T12:35:56.844Z,41.34
2022-10-02T12:38:44.580Z,40.68
2022-10-02T12:41:35.788Z,42.11
2022-10-02T12:44:22.189Z,41.90
2022-10-02T12:47:33.923Z,40.66
2022-10-02T12:50:21.998Z,40.18
2022-10-02T12:53:25.145Z,40.11
2022-10-02T12:56:35.208Z,41.83
2022-10-02T12:59:16.929Z,42.04
2022-10-02T13:02:18.413Z,42.29
2022-10-02T13:05:10.931Z,42.01
2022-10-02T13:08:14.375Z,41.44
2022-10-02T13:10:54.331Z,41.80
2022-10-02T13:13:37.746Z,42.52
2022-10-02T13:16:16.581Z,43.06
2022-10-02T13:18:58.869Z,43.29
2022-10-02T13:21:39.939Z,43.15
2022-10-02T13:24:26.807Z,41.99
2022-10-02T13:27:06.501Z,41.70
2022-10-02T13:29:54.543Z,41.32
2022-10-02T13:32:47.657Z,41.00
2022-10-02T13:35:53.145Z,41.97
2022-10-02T13:38:38.132Z,41.31
2022-10-02T13:41:18.414Z,41.40
2022-10-02T13:44:07.996Z,41.10
2022-10-02T13:46:54.431Z,42.18
2022-10-02T13:49:40.266Z,42.03
2022-10-02T13:52:23.571Z,42.02
2022-10-02T13:55:08.773Z,42.08
2022-10-02T13:57:57.237Z,42.36
2022-10-02T14:01:02.572Z,42.98
2022-10-02T14:03:50.496Z,43.06
2022-10-02T14:06:27.419Z,42.68
2022-10-02T14:09:31.576Z,43.24
2022-10-02T14:12:28.849Z,43.94
2022-10-02T14:15:09.516Z,43.37
2022-10-02T14:17:54.847Z,44.24
2022-10-02T14:20:37.341Z,43.08
2022-10-02T14:23:37.790Z,42.51
2022-10-02T14:26:15.823Z,43.67
2022-10-02T14:29:20.319Z,43.67
2022-10-02T14:32:08.763Z,44.32
2022-10-02T14:34:58.321Z,45.21
2022-10-02T14:37:58.264Z,44.88
2022-10-02T14:40:36.019Z,45.67
2022-10-02T14:43:24.606Z,45.04
2022-10-02T14:46:05.903Z,45.49
2022-10-02T14:48:52.498Z,45.71
2022-10-02T14:51:37.337Z,46.24
2022-10-02T14:54:24.558Z,46.53
2022-10-02T14:57:02.043Z,46.32
2022-10-02T14:59:59.198Z,46.48
2022-10-02T15:03:28.910Z,46.85
2022-10-02T15:06:26.170Z,47.51
2022-10-02T15:09:08.089Z,47.26
2022-10-02T15:12:13.912Z,48.14
2022-10-02T15:14:57.382Z,48.17
2022-10-02T15:17:47.720Z,48.52
2022-10-02T15:20:26.581Z,48.92
2022-10-02T15:23:00.641Z,49.19
2022-10-02T15:26:07.490Z,49.54
2022-10-02T15:28:58.966Z,50.23
2022-10-02T15:31:41.569Z,50.54
2022-10-02T15:34:24.813Z,50.88
2022-10-02T15:37:14.389Z,50.88
2022-10-02T15:40:06.469Z,50.83
2022-10-02T15:42:57.993Z,50.60
2022-10-02T15:46:06.077Z,50.48
2022-10-02T15:48:57.006Z,51.05
2022-10-02T15:51:37.915Z,51.03
2022-10-02T15:54:19.490Z,51.50
2022-10-02T15:57:08.843Z,51.99
2022-10-02T15:59:55.194Z,52.52
2022-10-02T16:02:57.482Z,52.18
2022-10-02T16:05:41.833Z,52.71
2022-10-02T16:08:37.387Z,53.36
2022-10-02T16:11:29.430Z,54.72
2022-10-02T16:14:08.847Z,55.18
2022-10-02T16:17:20.770Z,55.65
2022-10-02T16:20:15.197Z,55.69
2022-10-02T16:23:00.201Z,56.24
2022-10-02T16:25:56.723Z,56.98
2022-10-02T16:28:49.984Z,57.13
2022-10-02T16:31:38.944Z,57.97
2022-10-02T16:34:34.223Z,58.64
2022-10-02T16:37:12.974Z,59.11
2022-10-02T16:39:59.579Z,60.03
2022-10-02T16:42:46.994Z,60.04
2022-10-02T16:45:32.733Z,60.81
2022-10-02T16:48:14.167Z,60.74
2022-10-02T16:50:56.121Z,61.11
2022-10-02T16:53:35.888Z,60.93
2022-10-02T16:56:13.912Z,60.74
2022-10-02T16:58:51.052Z,61.13
2022-10-02T17:01:32.898Z,61.11
2022-10-02T17:04:30.861Z,61.15
2022-10-02T17:07:05.183Z,61.21
2022-10-02T17:09:54.806Z,60.48
2022-10-02T17:12:31.378Z,60.66
2022-10-02T17:15:06.260Z,60.89
2022-10-02T17:17:55.115Z,60.81
2022-10-02T17:20:29.415Z,61.46
2022-10-02T17:23:04.640Z,61.61
2022-10-02T17:25:45.382Z,61.98
2022-10-02T17:28:25.796Z,62.32
2022-10-02T17:31:15.603Z,62.85
2022-10-02T17:33:49.778Z,62.48
2022-10-02T17:36:25.541Z,63.16
2022-10-02T17:39:06.492Z,62.86
2022-10-02T17:41:49.475Z,62.48
2022-10-02T17:44:27.531Z,63.07
2022-10-02T17:47:24.681Z,62.22
2022-10-02T17:50:08.324Z,62.80
2022-10-02T17:52:57.286Z,62.99
2022-10-02T17:56:04.675Z,62.16
2022-10-02T17:58:57.184Z,62.97
2022-10-02T18:01:36.762Z,62.93
2022-10-02T18:04:19.317Z,63.27
2022-10-02T18:07:02.411Z,63.48
2022-10-02T18:09:52.024Z,63.41
2022-10-02T18:12:55.300Z,64.02
2022-10-02T18:15:53.287Z,63.99
2022-10-02T18:18:35.777Z,64.25
2022-10-02T18:21:20.668Z,64.93
2022-10-02T18:24:32.186Z,65.29
2022-10-02T18:27:26.796Z,65.37
2022-10-02T18:30:08.961Z,65.56
2022-10-02T18:33:25.439Z,66.48
2022-10-02T18:36:11.423Z,66.61
2022-10-02T18:39:00.816Z,67.15
2022-10-02T18:41:47.840Z,67.04
2022-10-02T18:44:30.421Z,67.50
2022-10-02T18:47:07.395Z,68.00
2022-10-02T18:50:12.894Z,67.51
2022-10-02T18:52:59.058Z,67.83
2022-10-02T18:55:53.257Z,68.35
2022-10-02T18:58:54.877Z,68.05
2022-10-02T19:01:51.110Z,68.59
2022-10-02T19:04:37.590Z,69.24
2022-10-02T19:07:19.479Z,69.60
2022-10-02T19:09:50.057Z,69.83
2022-10-02T19:12:25.146Z,70.02
2022-10-02T19:14:57.315Z,69.79
2022-10-02T19:17:29.923Z,69.68
2022-10-02T19:20:00.675Z,70.11
2022-10-02T19:22:38.632Z,69.68
2022-10-02T19:25:19.654Z,69.64
2022-10-02T19:27:54.683Z,69.77
2022-10-02T19:30:27.439Z,69.44
2022-10-02T19:33:00.918Z,69.80
2022-10-02T19:35:33.924Z,69.70
2022-10-02T19:38:15.147Z,69.30
2022-10-02T19:40:45.991Z,69.59
2022-10-02T19:43:23.261Z,69.92
2022-10-02T19:45:57.496Z,70.10
2022-10-02T19:48:30.179Z,70.35
2022-10-02T19:51:02.483Z,70.85
2022-10-02T19:53:42.910Z,70.84
2022-10-02T19:56:16.880Z,70.80
2022-10-02T19:58:51.514Z,70.30
2022-10-02T20:01:23.325Z,70.85
2022-10-02T20:03:59.187Z,70.89
2022-10-02T20:06:34.243Z,71.24
2022-10-02T20:09:17.993Z,71.01
2022-10-02T20:11:53.026Z,70.94
2022-10-02T20:14:31.002Z,70.77
2022-10-02T20:17:10.793Z,70.96
2022-10-02T20:19:48.387Z,71.47
2022-10-02T20:22:31.880Z,71.39
2022-10-02T20:25:10.119Z,71.64
2022-10-02T20:27:50.514Z,71.89
2022-10-02T20:30:23.184Z,72.34
2022-10-02T20:32:59.007Z,72.67
2022-10-02T20:35:36.304Z,72.77
2022-10-02T20:38:13.436Z,72.49
2022-10-02T20:40:53.419Z,72.50
2022-10-02T20:43:29.368Z,72.21
2022-10-02T20:46:28.392Z,72.96
2022-10-02T20:49:15.013Z,72.61
2022-10-02T20:52:22.379Z,72.33
2022-10-02T20:55:01.636Z,72.66
2022-10-02T20:58:10.631Z,72.51
2022-10-02T21:01:00.323Z,72.31
2022-10-02T21:04:00.574Z,72.13
2022-10-02T21:07:06.748Z,72.07
2022-10-02T21:10:10.044Z,71.85
2022-10-02T21:13:14.257Z,71.95
2022-10-02T21:16:13.351Z,72.01
2022-10-02T21:19:22.375Z,72.27
2022-10-02T21:22:14.640Z,72.26
2022-10-02T21:25:26.214Z,72.00
2022-10-02T21:28:36.959Z,71.36
2022-10-02T21:31:21.314Z,72.32
2022-10-02T21:33:58.009Z,72.29
2022-10-02T21:36:35.736Z,71.96
2022-10-02T21:39:37.600Z,72.75
2022-10-02T21:42:42.025Z,72.90
2022-10-02T21:45:54.312Z,72.83
2022-10-02T21:48:58.024Z,72.91
2022-10-02T21:52:00.169Z,72.94
2022-10-02T21:55:02.581Z,73.08
2022-10-02T21:58:09.916Z,73.69
2022-10-02T22:01:05.444Z,73.60
2022-10-02T22:04:04.872Z,73.69
2022-10-02T22:06:51.276Z,73.56
2022-10-02T22:09:46.121Z,73.55
2022-10-02T22:12:30.268Z,73.68
2022-10-02T22:15:13.374Z,73.44
2022-10-02T22:17:58.390Z,73.01
2022-10-02T22:20:50.492Z,73.14
2022-10-02T22:23:49.761Z,73.01
2022-10-02T22:26:35.002Z,72.94
2022-10-02T22:29:15.596Z,72.46
2022-10-02T22:32:18.169Z,72.51
2022-10-02T22:34:57.483Z,72.95
2022-10-02T22:37:44.506Z,72.79
2022-10-02T22:40:20.597Z,73.49
2022-10-02T22:42:57.603Z,73.25
2022-10-02T22:45:36.205Z,73.64
2022-10-02T22:48:13.609Z,72.95
2022-10-02T22:50:53.876Z,73.63
2022-10-02T22:53:31.180Z,73.53
2022-10-02T22:56:01.333Z,73.43
2022-10-02T22:58:39.411Z,73.62
2022-10-02T23:01:17.709Z,73.98
2022-10-02T23:03:53.793Z,74.31
2022-10-02T23:06:32.469Z,74.01
2022-10-02T23:09:09.352Z,74.25
2022-10-02T23:11:44.813Z,74.34
2022-10-02T23:14:24.043Z,73.99
2022-10-02T23:17:03.135Z,74.69
2022-10-02T23:19:45.119Z,74.89
2022-10-02T23:22:28.686Z,75.14
2022-10-02T23:25:07.074Z,75.03
2022-10-02T23:27:48.885Z,75.79
2022-10-02T23:30:22.369Z,75.93
2022-10-02T23:32:58.380Z,76.02
2022-10-02T23:35:33.886Z,76.11
2022-10-02T23:38:18.158Z,75.71
2022-10-02T23:41:22.865Z,75.84
2022-10-02T23:44:02.405Z,76.28
2022-10-02T23:46:38.777Z,76.39
2022-10-02T23:49:12.998Z,76.68
2022-10-02T23:51:53.551Z,76.92
2022-10-02T23:54:46.533Z,76.70
2022-10-02T23:57:35.708Z,76.86
